Time,TemperatureF,DewpointF,PressureIn,WindDirection,WindDirectionDegrees,WindSpeedMPH,WindSpeedGustMPH,Humidity,HourlyPrecipIn,Conditions,Clouds,dailyrainin,SoftwareType,DateUTC
2013-02-06 00:09:00,21.5,19.0,30.08,SSW,207,1.0,2.0,91,0.00,,,0.00,weatherlink.com 1.10,2013-02-06 05:09:00,
2013-02-06 00:25:00,21.5,19.0,30.07,SSW,207,1.0,2.0,91,0.00,,,0.00,weatherlink.com 1.10,2013-02-06 05:25:00,
2013-02-06 00:39:00,21.5,20.0,30.07,SSW,207,1.0,3.0,92,0.00,,,0.00,weatherlink.com 1.10,2013-02-06 05:39:00,
2013-02-06 00:55:00,21.5,20.0,30.07,SSW,207,1.0,2.0,92,0.00,,,0.00,weatherlink.com 1.10,2013-02-06 05:55:00,
2013-02-06 01:10:00,21.5,20.0,30.07,SSW,207,1.0,2.0,92,0.00,,,0.00,weatherlink.com 1.10,2013-02-06 06:10:00,
2013-02-06 01:25:00,21.4,20.0,30.06,SSW,207,0.0,1.0,92,0.00,,,0.00,weatherlink.com 1.10,2013-02-06 06:25:00,
2013-02-06 01:40:00,21.4,20.0,30.07,SSW,207,2.0,2.0,93,0.00,,,0.00,weatherlink.com 1.10,2013-02-06 06:40:00,
2013-02-06 01:55:00,21.2,20.0,30.07,SSW,207,0.0,1.0,93,0.00,,,0.00,weatherlink.com 1.10,2013-02-06 06:55:00,
2013-02-06 02:10:00,21.2,20.0,30.07,SSW,207,0.0,2.0,93,0.00,,,0.00,weatherlink.com 1.10,2013-02-06 07:10:00,
2013-02-06 02:25:00,21.1,19.0,30.06,SSW,207,0.0,1.0,93,0.00,,,0.00,weatherlink.com 1.10,2013-02-06 07:25:00,
2013-02-06 02:40:00,20.9,19.0,30.06,SSW,207,1.0,2.0,93,0.00,,,0.00,weatherlink.com 1.10,2013-02-06 07:40:00,
2013-02-06 02:55:00,20.9,20.0,30.05,SSW,207,0.0,2.0,94,0.00,,,0.00,weatherlink.com 1.10,2013-02-06 07:55:00,
2013-02-06 03:10:00,20.7,19.0,30.05,SSW,207,0.0,2.0,94,0.00,,,0.00,weatherlink.com 1.10,2013-02-06 08:10:00,
2013-02-06 03:25:00,20.6,19.0,30.05,SSW,207,0.0,2.0,94,0.00,,,0.00,weatherlink.com 1.10,2013-02-06 08:25:00,
2013-02-06 03:40:00,20.7,19.0,30.06,SSW,207,1.0,2.0,94,0.00,,,0.00,weatherlink.com 1.10,2013-02-06 08:40:00,
2013-02-06 03:55:00,20.6,19.0,30.06,SSW,209,0.0,3.0,94,0.00,,,0.00,weatherlink.com 1.10,2013-02-06 08:55:00,
2013-02-06 04:10:00,20.5,19.0,30.06,SSW,209,1.0,1.0,94,0.00,,,0.00,weatherlink.com 1.10,2013-02-06 09:10:00,
2013-02-06 04:25:00,20.6,19.0,30.07,SSW,209,1.0,2.0,94,0.00,,,0.00,weatherlink.com 1.10,2013-02-06 09:25:00,
2013-02-06 04:40:00,20.3,19.0,30.07,SSW,209,0.0,2.0,94,0.00,,,0.00,weatherlink.com 1.10,2013-02-06 09:40:00,
2013-02-06 04:55:00,20.2,19.0,30.07,SSW,209,0.0,1.0,94,0.00,,,0.00,weatherlink.com 1.10,2013-02-06 09:55:00,
2013-02-06 05:10:00,20.1,19.0,30.09,SSW,209,1.0,2.0,94,0.00,,,0.00,weatherlink.com 1.10,2013-02-06 10:10:00,
2013-02-06 05:25:00,20.0,19.0,30.09,SSW,209,0.0,1.0,94,0.00,,,0.00,weatherlink.com 1.10,2013-02-06 10:25:00,
2013-02-06 05:40:00,20.1,19.0,30.10,SSW,209,0.0,1.0,94,0.00,,,0.00,weatherlink.com 1.10,2013-02-06 10:40:00,
2013-02-06 05:55:00,20.3,19.0,30.10,SSW,209,0.0,1.0,94,0.00,,,0.00,weatherlink.com 1.10,2013-02-06 10:55:00,
2013-02-06 06:10:00,20.2,19.0,30.11,SSW,209,0.0,0.0,94,0.00,,,0.00,weatherlink.com 1.10,2013-02-06 11:10:00,
2013-02-06 06:25:00,20.3,19.0,30.10,SSW,209,0.0,0.0,94,0.00,,,0.00,weatherlink.com 1.10,2013-02-06 11:25:00,
2013-02-06 06:40:00,20.3,19.0,30.11,SSW,209,0.0,1.0,94,0.00,,,0.00,weatherlink.com 1.10,2013-02-06 11:40:00,
2013-02-06 06:55:00,20.1,19.0,30.11,SSW,209,0.0,0.0,94,0.00,,,0.00,weatherlink.com 1.10,2013-02-06 11:55:00,
2013-02-06 07:10:00,19.9,19.0,30.12,SSW,209,0.0,1.0,94,0.00,,,0.00,weatherlink.com 1.10,2013-02-06 12:10:00,
2013-02-06 07:26:00,19.8,18.0,30.13,SSW,209,0.0,2.0,94,0.00,,,0.00,weatherlink.com 1.10,2013-02-06 12:26:00,
2013-02-06 07:40:00,20.2,19.0,30.13,SSW,209,0.0,2.0,94,0.00,,,0.00,weatherlink.com 1.10,2013-02-06 12:40:00,
2013-02-06 07:55:00,20.2,19.0,30.14,SSW,209,0.0,3.0,94,0.00,,,0.00,weatherlink.com 1.10,2013-02-06 12:55:00,
2013-02-06 08:10:00,20.2,19.0,30.15,SSW,209,1.0,3.0,94,0.00,,,0.00,weatherlink.com 1.10,2013-02-06 13:10:00,
2013-02-06 08:26:00,20.6,19.0,30.14,SSW,209,0.0,1.0,94,0.00,,,0.00,weatherlink.com 1.10,2013-02-06 13:26:00,
2013-02-06 08:40:00,21.6,20.0,30.15,SSW,209,1.0,2.0,94,0.00,,,0.00,weatherlink.com 1.10,2013-02-06 13:40:00,
2013-02-06 08:55:00,22.5,21.0,30.14,SSW,207,2.0,3.0,93,0.00,,,0.00,weatherlink.com 1.10,2013-02-06 13:55:00,
2013-02-06 09:11:00,23.2,22.0,30.15,SSW,207,2.0,3.0,93,0.00,,,0.00,weatherlink.com 1.10,2013-02-06 14:11:00,
2013-02-06 09:25:00,23.5,22.0,30.15,SSW,207,1.0,2.0,93,0.00,,,0.00,weatherlink.com 1.10,2013-02-06 14:25:00,
2013-02-06 09:40:00,24.1,22.0,30.14,SSW,207,1.0,3.0,92,0.00,,,0.00,weatherlink.com 1.10,2013-02-06 14:40:00,
2013-02-06 09:55:00,25.1,23.0,30.14,South,182,1.0,3.0,90,0.00,,,0.00,weatherlink.com 1.10,2013-02-06 14:55:00,
2013-02-06 10:11:00,26.0,23.0,30.15,South,182,1.0,2.0,87,0.00,,,0.00,weatherlink.com 1.10,2013-02-06 15:11:00,
2013-02-06 10:26:00,26.3,22.0,30.16,South,176,2.0,4.0,85,0.00,,,0.00,weatherlink.com 1.10,2013-02-06 15:26:00,
2013-02-06 10:41:00,26.8,23.0,30.16,South,176,2.0,3.0,85,0.00,,,0.00,weatherlink.com 1.10,2013-02-06 15:41:00,
2013-02-06 10:56:00,27.6,22.0,30.17,NNW,329,4.0,5.0,80,0.00,,,0.00,weatherlink.com 1.10,2013-02-06 15:56:00,
2013-02-06 11:11:00,28.1,22.0,30.17,South,171,3.0,4.0,78,0.00,,,0.00,weatherlink.com 1.10,2013-02-06 16:11:00,
2013-02-06 11:26:00,27.9,21.0,30.16,ESE,121,2.0,7.0,75,0.00,,,0.00,weatherlink.com 1.10,2013-02-06 16:26:00,
2013-02-06 11:41:00,28.3,22.0,30.16,SSW,194,1.0,3.0,76,0.00,,,0.00,weatherlink.com 1.10,2013-02-06 16:41:00,
2013-02-06 11:56:00,29.0,21.0,30.15,WNW,283,6.0,11.0,72,0.00,,,0.00,weatherlink.com 1.10,2013-02-06 16:56:00,
2013-02-06 12:11:00,29.1,20.0,30.15,WNW,303,1.0,13.0,70,0.01,,,0.01,weatherlink.com 1.10,2013-02-06 17:11:00,
2013-02-06 12:26:00,28.9,20.0,30.16,WSW,258,0.0,11.0,69,0.01,,,0.01,weatherlink.com 1.10,2013-02-06 17:26:00,
2013-02-06 12:41:00,28.6,20.0,30.16,WSW,249,7.0,15.0,71,0.01,,,0.01,weatherlink.com 1.10,2013-02-06 17:41:00,
2013-02-06 12:56:00,29.0,20.0,30.17,WNW,292,4.0,7.0,70,0.01,,,0.01,weatherlink.com 1.10,2013-02-06 17:56:00,
2013-02-06 13:11:00,29.1,19.0,30.17,West,273,7.0,16.0,66,0.00,,,0.01,weatherlink.com 1.10,2013-02-06 18:11:00,
2013-02-06 13:26:00,29.5,19.0,30.17,WNW,286,11.0,19.0,65,0.00,,,0.01,weatherlink.com 1.10,2013-02-06 18:26:00,
2013-02-06 13:41:00,29.9,19.0,30.17,WNW,290,4.0,19.0,63,0.00,,,0.01,weatherlink.com 1.10,2013-02-06 18:41:00,
2013-02-06 13:56:00,29.4,18.0,30.18,NNW,348,3.0,13.0,63,0.00,,,0.01,weatherlink.com 1.10,2013-02-06 18:56:00,
2013-02-06 14:11:00,29.5,17.0,30.18,NW,309,6.0,14.0,60,0.00,,,0.01,weatherlink.com 1.10,2013-02-06 19:11:00,
2013-02-06 14:26:00,29.0,14.0,30.19,West,281,8.0,16.0,54,0.00,,,0.01,weatherlink.com 1.10,2013-02-06 19:26:00,
2013-02-06 14:41:00,28.8,14.0,30.19,WNW,296,7.0,13.0,55,0.00,,,0.01,weatherlink.com 1.10,2013-02-06 19:41:00,
2013-02-06 14:56:00,30.0,14.0,30.20,NNW,331,5.0,9.0,52,0.00,,,0.01,weatherlink.com 1.10,2013-02-06 19:56:00,
2013-02-06 15:11:00,29.4,13.0,30.20,West,261,9.0,14.0,51,0.00,,,0.01,weatherlink.com 1.10,2013-02-06 20:11:00,
2013-02-06 15:26:00,29.1,13.0,30.21,NNW,333,10.0,22.0,51,0.00,,,0.01,weatherlink.com 1.10,2013-02-06 20:26:00,
2013-02-06 15:41:00,28.5,11.0,30.23,WNW,287,4.0,18.0,48,0.00,,,0.01,weatherlink.com 1.10,2013-02-06 20:41:00,
2013-02-06 15:56:00,28.3,10.0,30.23,West,281,3.0,14.0,47,0.00,,,0.01,weatherlink.com 1.10,2013-02-06 20:56:00,
2013-02-06 16:11:00,27.7,9.0,30.24,WNW,292,6.0,17.0,46,0.00,,,0.01,weatherlink.com 1.10,2013-02-06 21:11:00,
2013-02-06 16:27:00,27.1,9.0,30.25,NNW,334,7.0,21.0,46,0.00,,,0.01,weatherlink.com 1.10,2013-02-06 21:27:00,
2013-02-06 16:42:00,26.5,9.0,30.26,NW,306,3.0,16.0,47,0.00,,,0.01,weatherlink.com 1.10,2013-02-06 21:42:00,
2013-02-06 16:56:00,26.1,8.0,30.27,WNW,298,7.0,13.0,47,0.00,,,0.01,weatherlink.com 1.10,2013-02-06 21:56:00,
2013-02-06 17:11:00,25.6,8.0,30.27,WNW,303,11.0,14.0,48,0.00,,,0.01,weatherlink.com 1.10,2013-02-06 22:11:00,
2013-02-06 17:26:00,25.3,7.0,30.29,NW,314,7.0,17.0,46,0.00,,,0.01,weatherlink.com 1.10,2013-02-06 22:26:00,
2013-02-06 17:57:00,24.6,7.0,30.30,NW,312,7.0,13.0,47,0.00,,,0.01,weatherlink.com 1.10,2013-02-06 22:57:00,
2013-02-06 18:12:00,24.3,6.0,30.31,NNW,328,6.0,19.0,46,0.00,,,0.01,weatherlink.com 1.10,2013-02-06 23:12:00,
2013-02-06 18:27:00,23.9,5.0,30.32,WNW,295,8.0,17.0,44,0.00,,,0.01,weatherlink.com 1.10,2013-02-06 23:27:00,
2013-02-06 18:42:00,23.4,4.0,30.34,WNW,298,2.0,20.0,44,0.00,,,0.01,weatherlink.com 1.10,2013-02-06 23:42:00,
2013-02-06 18:57:00,23.0,3.0,30.35,NW,310,5.0,14.0,42,0.00,,,0.01,weatherlink.com 1.10,2013-02-06 23:57:00,
2013-02-06 19:12:00,22.6,2.0,30.36,WNW,293,6.0,17.0,41,0.00,,,0.01,weatherlink.com 1.10,2013-02-07 00:12:00,
2013-02-06 19:27:00,22.3,2.0,30.36,WNW,286,7.0,13.0,42,0.00,,,0.01,weatherlink.com 1.10,2013-02-07 00:27:00,
2013-02-06 19:42:00,22.1,2.0,30.37,NW,304,4.0,13.0,42,0.00,,,0.01,weatherlink.com 1.10,2013-02-07 00:42:00,
2013-02-06 19:57:00,21.7,2.0,30.37,WNW,292,8.0,14.0,42,0.00,,,0.01,weatherlink.com 1.10,2013-02-07 00:57:00,
2013-02-06 20:12:00,21.6,2.0,30.37,WNW,297,5.0,12.0,42,0.00,,,0.01,weatherlink.com 1.10,2013-02-07 01:12:00,
2013-02-06 20:27:00,21.2,2.0,30.37,WNW,300,4.0,11.0,43,0.00,,,0.01,weatherlink.com 1.10,2013-02-07 01:27:00,
2013-02-06 20:42:00,21.0,2.0,30.38,West,273,7.0,11.0,43,0.00,,,0.01,weatherlink.com 1.10,2013-02-07 01:42:00,
2013-02-06 20:57:00,20.8,2.0,30.40,WNW,298,4.0,11.0,45,0.00,,,0.01,weatherlink.com 1.10,2013-02-07 01:57:00,
2013-02-06 21:12:00,20.7,3.0,30.41,NW,313,0.0,13.0,46,0.00,,,0.01,weatherlink.com 1.10,2013-02-07 02:12:00,
2013-02-06 21:27:00,20.5,3.0,30.42,North,355,4.0,14.0,46,0.00,,,0.01,weatherlink.com 1.10,2013-02-07 02:27:00,
2013-02-06 21:42:00,20.2,3.0,30.43,WSW,257,2.0,9.0,47,0.00,,,0.01,weatherlink.com 1.10,2013-02-07 02:42:00,
2013-02-06 21:57:00,19.6,3.0,30.45,NNW,333,0.0,7.0,49,0.00,,,0.01,weatherlink.com 1.10,2013-02-07 02:57:00,
2013-02-06 22:12:00,19.0,4.0,30.45,WNW,302,0.0,2.0,51,0.00,,,0.01,weatherlink.com 1.10,2013-02-07 03:12:00,
2013-02-06 22:28:00,18.7,4.0,30.44,West,279,0.0,2.0,52,0.00,,,0.01,weatherlink.com 1.10,2013-02-07 03:28:00,
2013-02-06 22:42:00,17.8,4.0,30.45,West,279,0.0,2.0,54,0.00,,,0.01,weatherlink.com 1.10,2013-02-07 03:42:00,
2013-02-06 22:58:00,17.9,4.0,30.45,WNW,290,2.0,4.0,55,0.00,,,0.01,weatherlink.com 1.10,2013-02-07 03:58:00,
2013-02-06 23:12:00,16.9,5.0,30.45,NW,308,1.0,5.0,59,0.00,,,0.01,weatherlink.com 1.10,2013-02-07 04:12:00,
2013-02-06 23:29:00,17.1,5.0,30.45,NW,306,1.0,5.0,59,0.00,,,0.01,weatherlink.com 1.10,2013-02-07 04:29:00,
2013-02-06 23:42:00,16.0,5.0,30.46,WNW,300,0.0,3.0,63,0.00,,,0.01,weatherlink.com 1.10,2013-02-07 04:42:00,
2013-02-06 23:58:00,15.2,5.0,30.46,WNW,300,0.0,2.0,65,0.00,,,0.01,weatherlink.com 1.10,2013-02-07 04:58:00,